• Join FlightAware (Why Join?)
  • Login
  • US Flag 
02:35PM EDT


 

Airport Tracker/Info


-or-


 

Live Flight TrackerFlight Track Log ✈ EJA658 ✈ 02-May-2013 ✈ KCLT - KTMB

Flight Track Log - Related Links

Times and Time Zones

All times are in EDT time to prevent confusion due to time zone crossing. See the EJA658 flight status page for this flight to view local times or setup timezone preferences in your user account.

Time Position Orientation Groundspeed Altitude Reporting Facility
EDT Latitude Longitude Course Direction KTS MPH feet Rate Location/Type
11:28AM 35.2264 -80.9394 12° North 174 200 1,800  Level Atlanta Center
11:30AM 35.2969 -80.9214 12° North 245 282 5,500 2,820 Climbing Atlanta Center
11:30AM 35.3478 -80.8686 40° Northeast 283 326 7,900 1,320 Climbing Atlanta Center
11:31AM 35.3558 -80.7817 83° East 262 302 8,100 120 Climbing Atlanta Center
11:32AM 35.3569 -80.7436 88° East 267 307 8,100  Level Atlanta Center
11:33AM 35.3106 -80.7225 160° South 262 302 8,100 1,140 Level Atlanta Center
11:34AM 35.2183 -80.7161 177° South 299 344 10,400 2,040 Climbing Atlanta Center
11:35AM 35.1314 -80.7322 189° South 312 359 12,500 1,860 Climbing Atlanta Center
11:36AM 35.0519 -80.8064 217° Southwest 341 392 14,200 1,800 Climbing Atlanta Center
11:37AM 34.9633 -80.8531 203° Southwest 353 406 16,100 1,740 Climbing Atlanta Center
11:39AM 34.7719 -80.8883 189° South 368 423 19,300 1,740 Climbing Jacksonville Center
11:40AM 34.6697 -80.9033 187° South 368 423 21,300 1,980 Climbing Jacksonville Center
11:41AM 34.5697 -80.9056 181° South 368 423 23,300 1,980 Climbing Jacksonville Center
11:42AM 34.4636 -80.9283 190° South 368 423 25,300 1,980 Climbing Jacksonville Center
11:43AM 34.3594 -80.9381 184° South 373 429 27,300 1,860 Climbing Jacksonville Center
11:44AM 34.2617 -80.9531 187° South 373 429 29,100 1,800 Climbing Jacksonville Center
11:45AM 34.1575 -80.9578 182° South 367 422 31,000 1,920 Climbing Jacksonville Center
11:46AM 34.0575 -80.9625 182° South 367 422 33,000 1,800 Climbing Jacksonville Center
11:47AM 33.9594 -80.9697 183° South 367 422 34,700 1,500 Climbing Jacksonville Center
11:48AM 33.8572 -80.9744 182° South 367 422 36,000 1,260 Climbing Jacksonville Center
11:49AM 33.7614 -80.9814 183° South 367 422 37,300 960 Climbing Jacksonville Center
11:50AM 33.6550 -80.9864 182° South 372 428 38,000 300 Climbing Jacksonville Center
11:51AM 33.5467 -80.9936 183° South 386 444 38,000  Level Jacksonville Center
11:52AM 33.4403 -80.9983 182° South 386 444 38,000  Level Jacksonville Center
11:53AM 33.3339 -81.0056 183° South 386 444 38,000 120 Level Jacksonville Center
11:54AM 33.2233 -81.0106 182° South 386 444 38,300 900 Climbing Jacksonville Center
11:55AM 33.1169 -81.0175 183° South 386 444 39,900 840 Climbing Jacksonville Center
11:56AM 33.0064 -81.0225 182° South 386 444 40,000  Climbing Jacksonville Center
11:57AM 32.8939 -81.0322 184° South 404 465 40,000  Level Jacksonville Center
11:58AM 32.7814 -81.0344 181° South 404 465 40,000  Level Jacksonville Center
11:59AM 32.6708 -81.0442 184° South 399 459 40,000  Level Jacksonville Center
12:00PM 32.5622 -81.0489 182° South 399 459 40,000  Level Jacksonville Center
12:01PM 32.4475 -81.0536 182° South 404 465 40,000  Level Jacksonville Center
12:02PM 32.3475 -81.0556 181° South 382 440 40,100  Climbing Jacksonville Center
12:03PM 32.2283 -81.0531 179° South 385 443 40,100 -60 Level Jacksonville Center
12:04PM 32.1136 -81.0603 183° South 401 461 40,000 -60 Descending Jacksonville Center
12:05PM 32.0133 -81.0600 180° South 401 461 40,000  Level Jacksonville Center
12:06PM 31.8922 -81.0622 181° South 401 461 40,100  Climbing Jacksonville Center
12:07PM 31.7858 -81.0644 181° South 401 461 40,100  Level Jacksonville Center
12:08PM 31.6836 -81.0664 181° South 401 461 40,100  Level Jacksonville Center
12:09PM 31.5606 -81.0711 182° South 401 461 40,100  Level Jacksonville Center
12:10PM 31.4603 -81.0733 181° South 401 461 40,100  Level Jacksonville Center
12:11PM 31.3475 -81.0731 180° South 401 461 40,100 -60 Level Jacksonville Center
12:12PM 31.2369 -81.0775 182° South 401 461 40,000 -60 Descending Jacksonville Center
12:13PM 31.1264 -81.0797 181° South 401 461 40,000  Level Jacksonville Center
12:14PM 31.0158 -81.0819 181° South 401 461 40,000  Level Jacksonville Center
12:15PM 30.9031 -81.0839 181° South 401 461 40,000  Level Jacksonville Center
12:16PM 30.7925 -81.0861 181° South 401 461 40,000  Level Jacksonville Center
12:17PM 30.6817 -81.0881 181° South 401 461 40,000  Level Jacksonville Center
12:18PM 30.5733 -81.0903 181° South 401 461 40,000  Level Jacksonville Center
12:19PM 30.4647 -81.0922 181° South 401 461 40,000  Level Jacksonville Center
12:20PM 30.3542 -81.0944 181° South 396 456 40,000  Level Jacksonville Center
12:21PM 30.2497 -81.0964 181° South 396 456 40,000  Level Jacksonville Center
12:22PM 30.1392 -81.0961 180° South 396 456 40,000  Level Jacksonville Center
12:23PM 30.0306 -81.1003 182° South 396 456 40,000  Level Jacksonville Center
12:24PM 29.9242 -81.1025 181° South 391 450 40,000  Level Jacksonville Center
12:25PM 29.8178 -81.1044 181° South 391 450 40,000  Level Jacksonville Center
12:26PM 29.7092 -81.1086 182° South 384 442 40,000  Level Jacksonville Center
12:28PM 29.4725 -81.1103 180° South 389 448 40,000  Level Miami Center
12:29PM 29.3514 -81.1128 181° South 395 455 40,000  Level Miami Center
12:31PM 29.1431 -81.0356 162° South 390 449 40,000  Level Miami Center
12:32PM 29.0497 -80.9514 142° Southeast 395 455 40,000  Level Miami Center
12:33PM 28.9603 -80.8675 141° Southeast 411 473 40,000  Level Miami Center
12:34PM 28.8792 -80.7886 140° Southeast 424 488 40,000  Level Miami Center
12:35PM 28.7875 -80.7025 141° Southeast 432 497 40,000  Level Miami Center
12:36PM 28.6856 -80.6117 142° Southeast 432 497 40,000  Level Miami Center
12:37PM 28.5939 -80.5258 141° Southeast 432 497 40,000  Level Miami Center
12:38PM 28.5003 -80.4375 140° Southeast 432 497 40,000  Level Miami Center
12:39PM 28.4164 -80.3619 142° Southeast 432 497 40,000  Level Miami Center
12:40PM 28.3125 -80.2642 140° Southeast 432 497 40,000  Level Miami Center
12:41PM 28.2183 -80.1814 142° Southeast 437 503 40,000  Level Miami Center
12:42PM 28.1264 -80.0961 141° Southeast 437 503 40,000  Level Miami Center
12:43PM 28.0406 -80.0183 141° Southeast 437 503 40,000  Level Miami Center
12:44PM 27.9483 -79.9336 141° Southeast 432 497 40,000  Level Miami Center
12:45PM 27.8439 -79.8439 143° Southeast 432 497 40,100  Climbing Miami Center
12:46PM 27.7536 -79.7594 140° Southeast 432 497 40,000 -60 Descending Miami Center
12:47PM 27.6592 -79.6750 142° Southeast 432 497 40,000  Level Miami Center
12:48PM 27.5839 -79.5794 132° Southeast 437 503 40,000  Level Miami Center
12:49PM 27.5150 -79.4606 123° Southeast 449 517 40,000  Level Miami Center
12:50PM 27.4381 -79.3325 124° Southeast 454 522 40,000  Level Miami Center
12:51PM 27.3625 -79.2164 126° Southeast 454 522 40,000  Level Miami Center
12:52PM 27.2892 -79.1003 125° Southeast 454 522 40,000  Level Miami Center
12:53PM 27.2219 -78.9961 126° Southeast 459 528 40,000  Level Miami Center
12:54PM 27.1483 -78.8806 126° Southeast 459 528 40,000  Level Miami Center
12:55PM 27.0472 -78.8042 146° Southeast 422 486 40,000 -600 Level Miami Center
12:57PM 26.8222 -78.7586 170° South 402 463 38,200 -1,140 Descending Miami Center
12:58PM 26.7117 -78.7358 170° South 408 470 36,600 -1,140 Descending Miami Center
12:59PM 26.6033 -78.7108 168° South 413 475 36,000 -300 Descending Miami Center
01:00PM 26.4867 -78.6950 173° South 412 474 36,000  Level Miami Center
01:01PM 26.3656 -78.6861 176° South 418 481 36,000  Level Miami Center
01:02PM 26.2508 -78.6797 177° South 426 490 36,000  Level Miami Center
01:03PM 26.1400 -78.6733 177° South 411 473 36,000  Level Miami Center
01:04PM 26.0253 -78.6672 177° South 404 465 36,000  Level Miami Center
01:05PM 25.9186 -78.6794 186° South 399 459 36,000  Level Miami Center
01:06PM 25.8197 -78.7286 204° Southwest 390 449 36,000 -120 Level Miami Center
01:07PM 25.7375 -78.7736 206° Southwest 385 443 35,800 -660 Descending Miami Center
01:08PM 25.6386 -78.8250 205° Southwest 385 443 34,700 -1,080 Descending Miami Center
01:09PM 25.5378 -78.8764 205° Southwest 390 449 33,700 -1,080 Descending Miami Center
01:10PM 25.4303 -78.9344 206° Southwest 410 472 32,600 -1,920 Descending Miami Center
01:11PM 25.3253 -78.9878 205° Southwest 404 465 29,900 -2,760 Descending Miami Center
01:12PM 25.2447 -79.0597 219° Southwest 374 430 27,100 -3,000 Descending Miami Center
01:13PM 25.2619 -79.1706 280° West 315 362 23,900 -3,120 Descending Miami Center
01:14PM 25.2872 -79.2858 284° West 343 395 20,900 -3,000 Descending Miami Center
01:15PM 25.3144 -79.3989 285° West 362 417 17,900 -3,000 Descending Miami Center
01:16PM 25.3397 -79.5075 284° West 374 430 14,900 -2,700 Descending Miami Center
01:17PM 25.3608 -79.6114 283° West 368 423 12,500 -1,500 Descending Miami Center
01:18PM 25.3819 -79.7131 283° West 355 409 11,900 -840 Descending Miami Center
01:19PM 25.4008 -79.8081 282° West 337 388 10,900 -960 Descending Miami Center
01:20PM 25.4367 -79.8939 295° West 322 371 10,000 -960 Descending Miami Center
01:21PM 25.4831 -79.9711 304° West 300 345 9,000 -1,200 Descending Miami Center
01:22PM 25.5511 -80.0211 326° Northwest 292 336 7,700 -2,100 Descending Miami Center
01:23PM 25.6169 -80.0711 326° Northwest 286 329 4,900 -2,580 Descending Miami Center
01:24PM 25.6528 -80.1458 298° West 275 316 2,600 -1,500 Descending Miami Center
01:25PM 25.6658 -80.2153 282° West 250 288 2,000 -240 Descending Miami Center
01:26PM 25.6639 -80.3031 269° West 243 280 2,100  Climbing Miami Center
01:27PM 25.6561 -80.3672 262° West 197 227 2,000  Descending Miami Center
01:28PM 25.6650 -80.4297 279° West 177 204 2,100 -420 Climbing Miami Center
01:29PM 25.6617 -80.4733 265° West 130 150 1,200 -900 Descending Miami Center
01:30PM 25.6414 -80.4544 140° Southeast 120 138 300 -900 Descending Miami Center
01:32PM 25.6476 -80.4332 90° East  Level Estimated
01:39PM 25.6476 -80.4332 90° East  Level Estimated